Time;durP1;ratioP1;P1;durP2;ratioP2;P2;SDS_P1;SDS_P2;PMS_P1;PMS_P2;Temp;Humidity;BMP_temperature;BMP_pressure;BME280_temperature;BME280_humidity;BME280_pressure;Samples;Min_cycle;Max_cycle;Signal;HPM_P1;HPM_P2
2022/07/16 04:00:15;;;;;;;4.53;4.23;;;14.60;99.90;;;;;;5983365;23;20393;31
2022/07/16 04:02:42;;;;;;;3.88;3.72;;;14.60;99.90;;;;;;4908589;29;20526;-69
2022/07/16 04:05:10;;;;;;;4.50;4.10;;;14.60;99.90;;;;;;4914136;29;20266;-70
2022/07/16 04:07:36;;;;;;;3.70;3.50;;;14.60;99.90;;;;;;4915329;29;20474;-70
2022/07/16 04:10:04;;;;;;;4.00;3.90;;;14.70;99.90;;;;;;4913420;29;20463;-69
2022/07/16 04:12:30;;;;;;;9.47;3.87;;;14.70;99.90;;;;;;4913780;29;20493;-69
2022/07/16 04:14:57;;;;;;;3.20;3.10;;;14.70;99.90;;;;;;4899686;29;20470;-70
2022/07/16 04:17:25;;;;;;;3.40;3.30;;;14.70;99.90;;;;;;4937641;23;20572;-70
2022/07/16 04:19:52;;;;;;;3.67;3.37;;;14.70;99.90;;;;;;4934585;29;21103;-70
2022/07/16 04:22:19;;;;;;;3.10;3.00;;;14.70;99.90;;;;;;4925535;29;20497;-70
2022/07/16 04:24:45;;;;;;;3.43;3.33;;;14.70;99.90;;;;;;4934339;29;20576;-69
2022/07/16 04:27:12;;;;;;;2.90;2.80;;;14.80;99.90;;;;;;4925271;29;20489;-69
2022/07/16 04:29:39;;;;;;;4.70;3.30;;;14.80;99.90;;;;;;4915603;29;20581;-70
2022/07/16 04:32:06;;;;;;;3.30;3.30;;;14.80;99.90;;;;;;4924727;29;20988;-70
2022/07/16 04:34:34;;;;;;;2.90;2.80;;;14.90;99.90;;;;;;4916716;29;20466;-70
2022/07/16 04:37:01;;;;;;;2.97;2.70;;;15.20;99.90;;;;;;4923651;29;20504;-70
2022/07/16 04:39:28;;;;;;;2.50;2.42;;;15.40;99.90;;;;;;4917301;29;21047;-70
2022/07/16 04:41:54;;;;;;;2.67;2.55;;;15.50;99.90;;;;;;4922991;29;20209;-70
2022/07/16 04:44:21;;;;;;;2.63;2.40;;;15.70;99.90;;;;;;4918783;29;20226;-70
2022/07/16 04:46:48;;;;;;;2.37;2.17;;;16.30;99.90;;;;;;4921922;29;20703;-70
2022/07/16 04:49:14;;;;;;;2.20;2.00;;;17.10;99.90;;;;;;4922325;29;20474;-70
2022/07/16 04:51:42;;;;;;;2.03;1.73;;;18.00;99.90;;;;;;4922391;29;20462;-70
2022/07/16 04:54:09;;;;;;;1.57;1.57;;;18.20;99.90;;;;;;4916852;29;20554;-70
2022/07/16 04:56:36;;;;;;;1.50;1.50;;;17.90;99.90;;;;;;4924729;29;20494;-70
2022/07/16 04:59:02;;;;;;;1.47;1.47;;;17.50;99.90;;;;;;4932097;29;20492;-70
2022/07/16 05:01:29;;;;;;;1.77;1.77;;;17.20;99.90;;;;;;4923765;29;20521;-69
2022/07/16 05:03:56;;;;;;;2.00;1.90;;;16.80;99.90;;;;;;4917505;29;20485;-70
2022/07/16 05:06:23;;;;;;;2.27;2.17;;;16.60;99.90;;;;;;4922373;29;20484;-69
2022/07/16 05:08:51;;;;;;;2.10;2.10;;;16.40;99.90;;;;;;4923488;29;20531;-70
2022/07/16 05:11:17;;;;;;;2.03;1.93;;;16.40;99.90;;;;;;4925126;29;20469;-69
2022/07/16 05:13:44;;;;;;;2.23;2.00;;;16.50;99.90;;;;;;4917295;29;20462;-70
2022/07/16 05:16:11;;;;;;;2.07;1.90;;;16.90;99.90;;;;;;4925466;29;20473;-69
2022/07/16 05:18:37;;;;;;;1.50;1.50;;;17.60;99.90;;;;;;4915466;29;20470;-69
2022/07/16 05:21:04;;;;;;;1.50;1.50;;;17.90;99.90;;;;;;4922777;29;20843;-69
2022/07/16 05:23:31;;;;;;;1.73;1.67;;;18.10;99.90;;;;;;4915871;29;20486;-70
2022/07/16 05:25:59;;;;;;;2.20;1.77;;;18.30;99.90;;;;;;4922843;29;20473;-69
2022/07/16 05:28:26;;;;;;;1.90;1.77;;;18.30;99.90;;;;;;4916364;29;20485;-69
2022/07/16 05:30:52;;;;;;;1.80;1.60;;;18.50;99.90;;;;;;4920825;29;20850;-69
2022/07/16 05:33:19;;;;;;;1.43;1.40;;;18.80;99.90;;;;;;4917881;29;20518;-69
2022/07/16 05:35:46;;;;;;;1.70;1.60;;;19.20;99.90;;;;;;4922780;29;20465;-70
2022/07/16 05:38:13;;;;;;;2.20;2.00;;;19.10;99.90;;;;;;4918384;29;20489;-69
2022/07/16 05:40:39;;;;;;;1.90;1.70;;;18.80;99.90;;;;;;4922626;29;20485;-69
2022/07/16 05:43:08;;;;;;;2.00;1.87;;;18.40;99.90;;;;;;4923185;29;20491;-69
2022/07/16 05:45:35;;;;;;;2.50;1.80;;;18.00;99.90;;;;;;4922070;29;20458;-69
2022/07/16 05:48:01;;;;;;;1.57;1.57;;;18.00;99.90;;;;;;4917862;29;20839;-69
2022/07/16 05:50:28;;;;;;;1.77;1.67;;;17.90;99.90;;;;;;4923181;29;20468;-69
2022/07/16 05:52:55;;;;;;;2.50;2.00;;;17.70;99.90;;;;;;4917622;29;20504;-69
2022/07/16 05:55:22;;;;;;;2.00;1.90;;;17.60;99.90;;;;;;4921802;29;20470;-69
2022/07/16 05:57:48;;;;;;;1.53;1.53;;;17.40;99.90;;;;;;4916247;29;20991;-69
2022/07/16 06:00:17;;;;;;;2.07;1.97;;;17.40;99.90;;;;;;4922308;29;20477;-69
2022/07/16 06:02:44;;;;;;;2.37;2.17;;;17.30;99.90;;;;;;4920214;29;20474;-69
2022/07/16 06:05:11;;;;;;;2.47;1.40;;;17.20;99.90;;;;;;4928724;29;20978;-69
2022/07/16 06:07:38;;;;;;;2.10;2.00;;;17.10;99.90;;;;;;4932383;29;20485;-69
2022/07/16 06:10:05;;;;;;;2.10;2.10;;;17.00;99.90;;;;;;4928734;29;20462;-69
2022/07/16 06:12:32;;;;;;;3.93;2.00;;;17.00;99.90;;;;;;4913908;29;20497;-69
2022/07/16 06:14:59;;;;;;;2.07;1.97;;;16.90;99.90;;;;;;4916466;29;21258;-69
2022/07/16 06:17:27;;;;;;;2.23;2.03;;;16.80;99.90;;;;;;4932586;29;20501;-69
2022/07/16 06:19:53;;;;;;;2.60;2.40;;;16.80;99.90;;;;;;4931164;29;20807;-69
2022/07/16 06:22:20;;;;;;;2.30;1.93;;;16.70;99.90;;;;;;4913736;29;20501;-69
2022/07/16 06:24:47;;;;;;;1.90;1.83;;;16.80;99.90;;;;;;4931725;29;20508;-69
2022/07/16 06:27:14;;;;;;;1.97;1.93;;;16.90;99.90;;;;;;4932821;29;20592;-69
2022/07/16 06:29:40;;;;;;;2.00;1.87;;;16.80;99.90;;;;;;4918410;29;20521;-69
2022/07/16 06:32:07;;;;;;;1.97;1.70;;;16.60;99.90;;;;;;4923677;29;20965;-68
2022/07/16 06:34:35;;;;;;;2.30;2.10;;;16.40;99.90;;;;;;4925483;29;20474;-69
2022/07/16 06:37:02;;;;;;;2.00;1.90;;;16.30;99.90;;;;;;4924627;29;20541;-70
2022/07/16 06:39:29;;;;;;;2.30;2.20;;;16.10;99.90;;;;;;4921068;29;20858;-70
2022/07/16 06:41:55;;;;;;;4.15;2.60;;;15.90;99.90;;;;;;4924169;29;20473;-70
2022/07/16 06:44:22;;;;;;;3.30;2.27;;;15.70;99.90;;;;;;4923190;29;20279;-70
2022/07/16 06:46:49;;;;;;;2.20;2.20;;;15.60;99.90;;;;;;4930665;29;20862;-69
2022/07/16 06:49:15;;;;;;;1.80;1.80;;;15.70;99.90;;;;;;4917393;29;20590;-69
2022/07/16 06:51:43;;;;;;;2.13;2.03;;;15.70;99.90;;;;;;4922099;29;20497;-72
2022/07/16 06:54:10;;;;;;;3.13;2.07;;;15.90;99.90;;;;;;4928156;29;20461;-69
2022/07/16 06:56:37;;;;;;;2.87;2.27;;;16.00;99.90;;;;;;4924467;29;20502;-69
2022/07/16 06:59:04;;;;;;;2.80;2.60;;;16.20;99.90;;;;;;4922077;29;21285;-68
2022/07/16 07:01:31;;;;;;;1.90;1.80;;;16.40;99.90;;;;;;4921718;29;20220;-69
2022/07/16 07:03:57;;;;;;;5.23;2.13;;;16.50;99.90;;;;;;4922492;29;20230;-70
2022/07/16 07:06:24;;;;;;;1.93;1.60;;;16.70;99.90;;;;;;4921762;29;20477;-68
2022/07/16 07:08:52;;;;;;;1.50;1.40;;;16.80;99.90;;;;;;4927743;29;20947;-69
2022/07/16 07:11:18;;;;;;;1.30;1.30;;;16.90;99.90;;;;;;4927344;29;20488;-68
2022/07/16 07:13:45;;;;;;;1.60;1.47;;;17.30;99.90;;;;;;4935840;29;20465;-69
2022/07/16 07:16:12;;;;;;;1.40;1.40;;;17.50;99.90;;;;;;4935016;29;20807;-69
2022/07/16 07:18:39;;;;;;;1.50;1.40;;;17.70;99.90;;;;;;4935858;29;21033;-69
2022/07/16 07:21:05;;;;;;;2.63;1.33;;;17.90;99.90;;;;;;4935077;29;20517;-68
2022/07/16 07:23:32;;;;;;;0.70;0.70;;;18.50;99.90;;;;;;4933830;29;20493;-69
2022/07/16 07:26:00;;;;;;;1.70;1.00;;;19.10;99.90;;;;;;4927629;29;20470;-68
2022/07/16 07:28:28;;;;;;;0.80;0.80;;;19.80;99.90;;;;;;4925338;29;20487;-69
2022/07/16 07:30:56;;;;;;;0.77;0.77;;;20.60;99.90;;;;;;4917107;29;20574;-68
2022/07/16 07:33:23;;;;;;;0.70;0.70;;;20.90;99.90;;;;;;4928459;29;20483;-69
2022/07/16 07:35:50;;;;;;;0.97;0.83;;;21.30;99.90;;;;;;4927116;29;20466;-69
2022/07/16 07:38:16;;;;;;;0.60;0.60;;;21.50;99.90;;;;;;4933367;29;20490;-69
2022/07/16 07:40:43;;;;;;;0.93;0.93;;;20.80;99.90;;;;;;4921773;29;20467;-69
2022/07/16 07:43:11;;;;;;;1.50;0.90;;;19.90;99.90;;;;;;4915505;29;20956;-68
2022/07/16 07:45:38;;;;;;;0.80;0.80;;;19.90;99.90;;;;;;4929428;29;20210;-68
2022/07/16 07:48:05;;;;;;;2.10;1.20;;;20.20;99.90;;;;;;4935382;29;20238;-68
2022/07/16 07:50:33;;;;;;;1.23;1.17;;;20.80;99.90;;;;;;4930324;29;20467;-69
2022/07/16 07:52:59;;;;;;;1.53;1.00;;;21.00;99.90;;;;;;4926880;29;20879;-69
2022/07/16 07:55:26;;;;;;;2.23;0.90;;;20.50;99.90;;;;;;4918030;29;20467;-68
2022/07/16 07:57:53;;;;;;;2.47;1.10;;;20.80;99.90;;;;;;4926813;29;20585;-68
2022/07/16 08:00:21;;;;;;;1.70;0.97;;;20.90;99.90;;;;;;4919297;29;20489;-68
2022/07/16 08:02:48;;;;;;;1.13;0.80;;;21.30;99.90;;;;;;4923905;29;20473;-67
2022/07/16 08:05:15;;;;;;;3.57;1.07;;;21.40;99.90;;;;;;4922311;29;20494;-67
2022/07/16 08:07:43;;;;;;;1.30;1.20;;;21.30;99.90;;;;;;4922078;29;20494;-67
2022/07/16 08:10:10;;;;;;;0.87;0.87;;;20.70;99.90;;;;;;4919688;29;20506;-67
2022/07/16 08:12:38;;;;;;;1.33;1.23;;;20.60;99.90;;;;;;4926412;29;20566;-67
2022/07/16 08:15:06;;;;;;;3.30;0.77;;;20.10;99.90;;;;;;4927090;29;20493;-67
2022/07/16 08:17:34;;;;;;;1.33;0.83;;;19.80;99.90;;;;;;4925683;29;20504;-67
2022/07/16 08:20:00;;;;;;;3.60;1.20;;;19.90;99.90;;;;;;4916465;29;20471;-68
2022/07/16 08:22:27;;;;;;;2.63;1.20;;;20.20;99.90;;;;;;4923524;29;20841;-68
2022/07/16 08:27:38;;;;;;;1.97;1.30;;;19.60;99.90;;;;;;4928351;29;20493;-68
2022/07/16 08:30:06;;;;;;;2.83;0.80;;;19.40;99.90;;;;;;4925528;29;20549;-68
2022/07/16 08:32:34;;;;;;;3.03;1.20;;;19.30;99.90;;;;;;4928351;29;20607;-69
2022/07/16 08:35:01;;;;;;;2.00;1.10;;;19.30;99.90;;;;;;4922741;29;20470;-69
2022/07/16 08:37:35;;;;;;;0.70;0.70;;;19.10;99.90;;;;;;4924078;29;21022;-69
2022/07/16 08:40:03;;;;;;;3.80;0.93;;;18.80;99.90;;;;;;4920456;29;20503;-68
2022/07/16 08:42:32;;;;;;;1.47;0.77;;;19.00;99.90;;;;;;4928416;29;20500;-69
2022/07/16 08:44:59;;;;;;;3.20;1.33;;;19.40;99.90;;;;;;4927262;29;20831;-69
2022/07/16 08:47:27;;;;;;;3.30;1.13;;;19.90;99.90;;;;;;4931842;29;20488;-69
2022/07/16 08:49:55;;;;;;;2.33;0.97;;;20.20;99.90;;;;;;4917920;29;20823;-69
2022/07/16 08:52:26;;;;;;;3.27;1.40;;;20.60;99.90;;;;;;4926711;29;20465;-69
2022/07/16 08:54:54;;;;;;;1.33;1.10;;;20.60;99.90;;;;;;4925069;29;20473;-69
2022/07/16 08:57:22;;;;;;;1.10;1.10;;;20.30;99.90;;;;;;4925289;29;20528;-69
2022/07/16 08:59:49;;;;;;;1.47;1.03;;;19.90;99.90;;;;;;4932184;29;20461;-69
2022/07/16 09:02:16;;;;;;;2.27;0.97;;;19.70;99.90;;;;;;4928268;29;21026;-68
2022/07/16 09:04:44;;;;;;;1.23;1.13;;;19.60;99.90;;;;;;4927982;29;20600;-69
2022/07/16 09:07:13;;;;;;;3.60;1.30;;;19.70;99.90;;;;;;4931584;29;20485;-69
2022/07/16 09:09:40;;;;;;;5.03;1.40;;;19.60;99.90;;;;;;4928397;29;20481;-69
2022/07/16 09:12:07;;;;;;;2.17;1.30;;;19.60;99.90;;;;;;4926571;29;20489;-69
2022/07/16 09:14:34;;;;;;;1.03;1.03;;;19.60;99.90;;;;;;4933778;29;20458;-69
2022/07/16 09:17:01;;;;;;;5.23;1.53;;;19.70;99.90;;;;;;4923361;29;20504;-69
2022/07/16 09:19:29;;;;;;;1.15;0.95;;;19.60;99.90;;;;;;4919437;29;20572;-68
2022/07/16 09:22:05;;;;;;;1.53;0.70;;;19.80;99.90;;;;;;4922700;29;20206;-68
2022/07/16 09:24:36;;;;;;;1.23;0.80;;;19.60;99.90;;;;;;4918674;29;20598;-68
2022/07/16 09:27:04;;;;;;;1.07;0.93;;;19.30;99.90;;;;;;4926453;29;20490;-69
2022/07/16 09:29:35;;;;;;;0.88;0.80;;;19.30;99.90;;;;;;4914600;29;20470;-68
2022/07/16 09:32:01;;;;;;;1.07;0.73;;;19.50;99.90;;;;;;4919488;29;20209;-68
2022/07/16 09:34:29;;;;;;;3.73;0.93;;;19.70;99.90;;;;;;4925815;29;20570;-68
2022/07/16 09:36:58;;;;;;;2.10;0.80;;;19.70;99.90;;;;;;4925428;29;20853;-68
2022/07/16 09:39:25;;;;;;;2.07;1.20;;;19.50;99.90;;;;;;4924981;29;20477;-69
2022/07/16 09:41:53;;;;;;;2.72;1.10;;;19.20;99.90;;;;;;4921212;29;20509;-69
2022/07/16 09:44:21;;;;;;;0.93;0.67;;;19.00;99.90;;;;;;4920821;29;20231;-69
2022/07/16 09:47:06;;;;;;;3.93;0.60;;;18.90;99.90;;;;;;4925837;29;20509;-69
2022/07/16 09:49:34;;;;;;;1.17;0.70;;;19.00;99.90;;;;;;4929044;29;20480;-69
2022/07/16 09:52:01;;;;;;;0.97;0.70;;;19.20;99.90;;;;;;4927750;29;20529;-70
2022/07/16 09:54:30;;;;;;;2.20;0.70;;;19.50;99.90;;;;;;4916876;29;20990;-68
2022/07/16 09:57:11;;;;;;;0.80;0.60;;;19.60;99.90;;;;;;4914590;29;20485;-69
2022/07/16 09:59:39;;;;;;;0.65;0.65;;;19.80;99.90;;;;;;4921426;29;20537;-69
2022/07/16 10:02:06;;;;;;;1.83;0.93;;;19.90;99.90;;;;;;4923502;29;20206;-68
2022/07/16 10:04:33;;;;;;;1.73;1.00;;;20.10;99.90;;;;;;4914629;29;20845;-68
2022/07/16 10:07:00;;;;;;;2.07;0.80;;;20.00;99.90;;;;;;4921003;29;20489;-68
2022/07/16 10:09:27;;;;;;;1.80;0.60;;;19.70;99.90;;;;;;4921389;29;20506;-68
2022/07/16 10:11:55;;;;;;;2.03;0.90;;;19.70;99.90;;;;;;4927401;29;20472;-68
2022/07/16 10:14:23;;;;;;;1.27;0.93;;;19.70;99.90;;;;;;4926970;29;20302;-68
2022/07/16 10:16:50;;;;;;;1.65;0.90;;;19.60;99.90;;;;;;4931326;29;20507;-68
2022/07/16 10:19:17;;;;;;;1.70;1.00;;;19.60;99.90;;;;;;4920901;29;20205;-68
2022/07/16 10:22:19;;;;;;;1.30;0.70;;;19.30;99.90;;;;;;4920511;29;20476;-68
2022/07/16 10:24:49;;;;;;;4.23;1.27;;;19.30;99.90;;;;;;4917894;29;20973;-67
2022/07/16 10:27:22;;;;;;;2.40;0.70;;;19.30;99.90;;;;;;4925393;29;20490;-68
2022/07/16 10:29:51;;;;;;;2.83;0.80;;;19.40;99.90;;;;;;4925985;29;20474;-68
2022/07/16 10:32:30;;;;;;;4.45;0.98;;;19.80;99.90;;;;;;4923269;29;20970;-68
2022/07/16 10:35:00;;;;;;;4.37;1.00;;;19.90;99.90;;;;;;4925355;29;20241;-68
2022/07/16 10:37:30;;;;;;;1.00;0.97;;;19.70;99.90;;;;;;4931117;29;20516;-69
2022/07/16 10:40:06;;;;;;;1.37;1.03;;;19.60;99.90;;;;;;4934460;29;20512;-69
2022/07/16 10:42:34;;;;;;;3.43;1.57;;;19.50;99.90;;;;;;4930077;29;20499;-68
2022/07/16 10:45:02;;;;;;;3.28;0.90;;;19.40;99.90;;;;;;4926789;29;20497;-69
2022/07/16 10:47:56;;;;;;;2.20;0.90;;;19.60;99.90;;;;;;4921669;29;20543;-68
2022/07/16 10:50:24;;;;;;;1.00;0.80;;;20.00;99.90;;;;;;4932683;29;20473;-68
2022/07/16 10:52:52;;;;;;;0.90;0.90;;;20.10;99.90;;;;;;4928977;29;20473;-69
2022/07/16 10:55:35;;;;;;;1.67;1.20;;;20.10;99.90;;;;;;4926918;29;20557;-68
2022/07/16 10:58:02;;;;;;;1.67;1.27;;;20.10;99.90;;;;;;4927594;29;20499;-69
2022/07/16 11:00:30;;;;;;;2.03;0.95;;;20.10;99.90;;;;;;4928346;29;20245;-68
2022/07/16 11:02:59;;;;;;;5.10;1.00;;;20.20;99.90;;;;;;4925473;29;20221;-68
2022/07/16 11:05:29;;;;;;;1.47;0.90;;;20.10;99.90;;;;;;4926237;29;20631;-68
2022/07/16 11:08:05;;;;;;;1.97;0.90;;;20.00;99.90;;;;;;4925731;29;21043;-68
2022/07/16 11:10:32;;;;;;;1.63;1.20;;;20.00;99.90;;;;;;4927401;29;20462;-68
2022/07/16 11:12:59;;;;;;;1.27;1.13;;;19.90;99.90;;;;;;4928722;29;20966;-68
2022/07/16 11:15:26;;;;;;;1.73;1.57;;;19.80;99.90;;;;;;4925015;29;20485;-68
2022/07/16 11:17:57;;;;;;;0.80;0.80;;;19.90;99.90;;;;;;4924018;29;20872;-68
2022/07/16 11:20:35;;;;;;;3.83;1.10;;;20.00;99.90;;;;;;4928877;29;20528;-67
2022/07/16 11:23:06;;;;;;;1.60;0.90;;;19.90;99.90;;;;;;4926615;29;21022;-68
2022/07/16 11:25:33;;;;;;;1.23;1.13;;;19.70;99.90;;;;;;4924620;29;20485;-68
2022/07/16 11:28:02;;;;;;;2.20;1.20;;;19.70;99.90;;;;;;4923771;29;20493;-68
2022/07/16 11:30:31;;;;;;;1.20;0.77;;;19.70;99.90;;;;;;4928667;29;21002;-68
2022/07/16 11:32:59;;;;;;;3.13;1.07;;;19.70;99.90;;;;;;4927411;29;20473;-69
2022/07/16 11:35:25;;;;;;;1.07;1.07;;;19.90;99.90;;;;;;4923412;29;20564;-69
2022/07/16 11:37:55;;;;;;;1.20;1.07;;;20.00;99.90;;;;;;4923445;29;20581;-70
2022/07/16 11:40:32;;;;;;;3.60;1.00;;;19.80;99.90;;;;;;4930448;29;20963;-69
2022/07/16 11:42:59;;;;;;;1.30;1.00;;;19.60;99.90;;;;;;4923273;29;20947;-70
2022/07/16 11:45:27;;;;;;;2.53;1.10;;;19.40;99.90;;;;;;4924223;29;20489;-70
2022/07/16 11:50:48;;;;;;;3.23;0.87;;;19.60;99.90;;;;;;5103572;27;20935;-68
2022/07/16 11:53:27;;;;;;;2.13;0.90;;;19.80;99.90;;;;;;5087585;28;20472;-68
2022/07/16 11:55:54;;;;;;;1.00;0.87;;;19.80;99.90;;;;;;5082842;28;20466;-69
2022/07/16 11:58:21;;;;;;;1.83;1.00;;;19.70;99.90;;;;;;5066098;28;20583;-69
2022/07/16 12:00:49;;;;;;;1.37;1.00;;;19.60;99.90;;;;;;5064727;28;20871;-68
2022/07/16 12:03:17;;;;;;;1.43;1.00;;;19.80;99.90;;;;;;5063465;28;20490;-68
2022/07/16 12:05:43;;;;;;;3.87;1.50;;;20.20;99.90;;;;;;5065807;28;20473;-68
2022/07/16 12:08:12;;;;;;;1.33;1.00;;;20.40;99.90;;;;;;5062984;28;20495;-68
2022/07/16 12:10:39;;;;;;;1.30;1.20;;;20.20;99.90;;;;;;5063687;28;20487;-69
2022/07/16 12:16:28;;;;;;;3.40;1.10;;;19.80;99.90;;;;;;5023921;28;20603;-70
2022/07/16 12:19:03;;;;;;;2.67;1.00;;;19.90;99.90;;;;;;5025623;22;20923;-70
2022/07/16 12:21:32;;;;;;;1.27;1.03;;;20.10;99.90;;;;;;5019903;28;20473;-69
2022/07/16 12:24:00;;;;;;;1.33;0.80;;;20.30;99.90;;;;;;5026289;28;20485;-69
2022/07/16 12:26:36;;;;;;;1.83;0.80;;;20.50;99.90;;;;;;5016874;28;20477;-69
2022/07/16 12:29:04;;;;;;;2.73;0.73;;;20.70;99.90;;;;;;5029070;28;20985;-70
2022/07/16 12:31:32;;;;;;;2.20;0.93;;;20.70;98.90;;;;;;5021054;28;20523;-69
2022/07/16 12:34:00;;;;;;;1.33;1.10;;;20.70;99.60;;;;;;5020402;28;20497;-69
2022/07/16 12:36:32;;;;;;;1.00;0.90;;;20.70;99.40;;;;;;5019285;28;20469;-69
2022/07/16 12:39:02;;;;;;;1.57;0.90;;;20.50;99.80;;;;;;5025538;28;20465;-69
2022/07/16 12:41:31;;;;;;;2.80;1.20;;;20.30;99.90;;;;;;5026015;28;20469;-69
2022/07/16 12:44:00;;;;;;;1.60;0.90;;;20.20;99.90;;;;;;5021163;28;20514;-69
2022/07/16 12:46:29;;;;;;;1.80;0.80;;;20.30;99.90;;;;;;5023363;28;20476;-70
2022/07/16 12:48:57;;;;;;;5.80;1.67;;;20.50;99.90;;;;;;5025635;28;20499;-70
2022/07/16 12:51:27;;;;;;;1.00;0.90;;;20.70;99.90;;;;;;5024436;28;20536;-70
2022/07/16 12:53:55;;;;;;;1.10;1.00;;;20.70;99.90;;;;;;5021359;28;20521;-68
2022/07/16 12:59:08;;;;;;;1.63;0.80;;;20.10;99.20;;;;;;5026282;28;20456;-69
2022/07/16 13:01:34;;;;;;;1.00;1.00;;;20.00;99.40;;;;;;5016030;28;20475;-69
2022/07/16 13:04:01;;;;;;;1.07;1.00;;;20.00;99.90;;;;;;5013072;28;20591;-70
2022/07/16 13:06:28;;;;;;;2.77;0.80;;;20.10;99.60;;;;;;5012741;28;20499;-69
2022/07/16 13:08:56;;;;;;;3.07;1.13;;;20.10;99.90;;;;;;5012213;28;20471;-69
2022/07/16 13:11:25;;;;;;;1.50;1.40;;;20.20;98.00;;;;;;5000884;28;20489;-69
2022/07/16 13:13:52;;;;;;;1.07;0.97;;;20.10;97.80;;;;;;5002944;28;20488;-69
2022/07/16 13:16:20;;;;;;;1.60;1.00;;;20.00;98.10;;;;;;5012744;28;20495;-69
2022/07/16 13:18:49;;;;;;;0.90;0.90;;;20.00;98.00;;;;;;5008062;28;20490;-70
2022/07/16 13:21:16;;;;;;;0.60;0.60;;;20.00;98.40;;;;;;5011759;28;20476;-70
2022/07/16 13:23:44;;;;;;;1.47;0.87;;;20.10;97.90;;;;;;5008037;28;20497;-69
2022/07/16 13:26:11;;;;;;;1.80;0.80;;;20.20;97.90;;;;;;5008342;28;20481;-70
2022/07/16 13:28:39;;;;;;;0.80;0.60;;;20.50;98.30;;;;;;5011568;28;20508;-71
2022/07/16 13:31:06;;;;;;;1.37;1.27;;;20.60;98.40;;;;;;5011462;28;20489;-68
2022/07/16 13:33:32;;;;;;;1.80;0.80;;;20.70;98.80;;;;;;5006991;28;20493;-68
2022/07/16 13:36:00;;;;;;;5.57;1.00;;;20.50;98.10;;;;;;5011668;28;20889;-69
2022/07/16 13:38:27;;;;;;;1.80;1.20;;;20.60;98.20;;;;;;5012543;28;20465;-68
2022/07/16 13:40:54;;;;;;;4.13;0.80;;;20.80;98.10;;;;;;5011363;28;20899;-70
2022/07/16 13:43:22;;;;;;;1.50;0.67;;;20.90;97.90;;;;;;5011968;28;20493;-68
2022/07/16 13:45:50;;;;;;;2.10;1.07;;;20.70;96.70;;;;;;5011158;28;20810;-68
2022/07/16 13:48:19;;;;;;;2.10;0.90;;;20.40;97.30;;;;;;5011902;28;21019;-69
2022/07/16 13:50:46;;;;;;;2.93;0.93;;;20.50;98.70;;;;;;5008770;28;20596;-69
2022/07/16 13:53:13;;;;;;;1.70;1.00;;;20.60;98.90;;;;;;5009480;28;20492;-68
2022/07/16 13:55:40;;;;;;;3.90;0.97;;;20.60;98.40;;;;;;4995934;28;20465;-69
2022/07/16 13:58:17;;;;;;;1.13;0.90;;;20.70;97.70;;;;;;4998186;28;20486;-68
2022/07/16 14:00:48;;;;;;;3.00;0.90;;;20.70;97.60;;;;;;5008434;28;20464;-70
2022/07/16 14:03:16;;;;;;;1.13;1.03;;;20.60;98.00;;;;;;5002701;28;20562;-69
2022/07/16 14:05:44;;;;;;;1.90;1.00;;;20.70;98.60;;;;;;5011734;28;20470;-69
2022/07/16 14:08:11;;;;;;;2.80;1.07;;;20.70;98.70;;;;;;5010238;28;20470;-71
2022/07/16 14:10:39;;;;;;;0.77;0.60;;;20.60;98.10;;;;;;5011794;28;20484;-69
2022/07/16 14:13:06;;;;;;;2.97;0.80;;;20.30;98.30;;;;;;5010033;28;20791;-69
2022/07/16 14:15:33;;;;;;;0.90;0.90;;;20.30;99.00;;;;;;5010921;28;20478;-69
2022/07/16 14:18:00;;;;;;;2.23;0.77;;;20.50;98.20;;;;;;5003654;28;20839;-70
2022/07/16 14:20:29;;;;;;;2.70;0.67;;;20.60;97.90;;;;;;5010579;28;20469;-69
2022/07/16 14:22:56;;;;;;;3.23;0.80;;;20.80;97.20;;;;;;5002906;28;20458;-70
2022/07/16 14:25:23;;;;;;;1.60;1.00;;;21.10;96.70;;;;;;5010161;28;20590;-69
2022/07/16 14:27:50;;;;;;;2.10;0.73;;;21.30;95.70;;;;;;5004852;28;20462;-70
2022/07/16 14:30:18;;;;;;;0.97;0.63;;;21.50;95.50;;;;;;5002744;28;20490;-69
2022/07/16 14:32:45;;;;;;;1.93;0.87;;;21.80;95.40;;;;;;5011366;28;20467;-69
2022/07/16 14:35:14;;;;;;;0.70;0.70;;;21.90;94.80;;;;;;5010505;28;20805;-68
2022/07/16 14:37:44;;;;;;;6.23;1.37;;;21.90;94.30;;;;;;5003184;28;20494;-71
2022/07/16 14:40:12;;;;;;;1.53;0.67;;;21.70;94.60;;;;;;5010818;28;20469;-70
2022/07/16 14:42:39;;;;;;;0.80;0.70;;;21.50;94.90;;;;;;4999743;28;20929;-70
2022/07/16 14:45:07;;;;;;;3.23;0.80;;;21.50;94.50;;;;;;4997663;28;20494;-69
2022/07/16 14:47:34;;;;;;;2.73;1.20;;;21.50;95.00;;;;;;5009299;28;20473;-69
2022/07/16 14:50:00;;;;;;;1.67;0.90;;;21.30;95.30;;;;;;5011379;28;20960;-69
2022/07/16 14:52:28;;;;;;;2.10;0.50;;;21.30;94.20;;;;;;5010397;28;20463;-70
2022/07/16 14:54:58;;;;;;;3.17;0.77;;;21.20;94.70;;;;;;5003546;28;20604;-70
2022/07/16 14:57:25;;;;;;;1.10;0.90;;;20.90;95.00;;;;;;5009245;28;20472;-70
2022/07/16 14:59:52;;;;;;;3.03;0.70;;;20.80;96.00;;;;;;5011799;28;20527;-70
2022/07/16 15:02:19;;;;;;;1.87;1.10;;;20.70;95.20;;;;;;5011746;28;20984;-70
2022/07/16 15:04:46;;;;;;;1.40;0.63;;;20.60;95.40;;;;;;5010715;28;20516;-70
2022/07/16 15:07:12;;;;;;;0.63;0.63;;;20.80;95.40;;;;;;5010870;28;20469;-70
2022/07/16 15:09:39;;;;;;;2.10;1.10;;;20.60;95.00;;;;;;5008593;28;20490;-69
2022/07/16 15:12:07;;;;;;;0.73;0.70;;;20.80;95.40;;;;;;5000505;28;20561;-70
2022/07/16 15:14:34;;;;;;;1.03;1.00;;;20.90;94.50;;;;;;5007853;28;20486;-70
2022/07/16 15:17:01;;;;;;;1.20;1.10;;;21.20;94.20;;;;;;5005867;28;20959;-69
2022/07/16 15:19:28;;;;;;;1.07;1.00;;;21.30;94.60;;;;;;5009006;28;20472;-70
2022/07/16 15:21:54;;;;;;;1.00;1.00;;;21.30;94.70;;;;;;4991964;28;20580;-70
2022/07/16 15:24:21;;;;;;;1.63;0.90;;;21.20;94.60;;;;;;5005357;28;20584;-70
2022/07/16 15:26:48;;;;;;;1.60;1.17;;;20.80;95.00;;;;;;4991566;28;20484;-69
2022/07/16 15:29:17;;;;;;;2.13;1.30;;;20.70;96.00;;;;;;5004928;28;20469;-70
2022/07/16 15:31:44;;;;;;;3.13;1.33;;;20.50;96.80;;;;;;5002630;28;20478;-70
2022/07/16 15:34:10;;;;;;;1.10;1.10;;;20.60;97.70;;;;;;5002275;28;20489;-70
2022/07/16 15:36:37;;;;;;;1.67;1.00;;;20.80;97.80;;;;;;5009995;28;20513;-70
2022/07/16 15:39:04;;;;;;;4.03;1.10;;;21.00;98.10;;;;;;5008959;28;21261;-69
2022/07/16 15:41:31;;;;;;;1.60;1.07;;;21.00;97.90;;;;;;5007877;28;20549;-70
2022/07/16 15:43:58;;;;;;;2.30;1.17;;;21.00;97.40;;;;;;5005986;28;20497;-69
2022/07/16 15:46:26;;;;;;;1.50;1.27;;;20.90;97.90;;;;;;5006282;28;20895;-70
2022/07/16 15:48:53;;;;;;;3.20;1.13;;;20.80;98.70;;;;;;5005619;28;21065;-70
2022/07/16 15:51:19;;;;;;;4.20;1.23;;;20.70;98.30;;;;;;5008650;28;20489;-70
2022/07/16 15:53:46;;;;;;;1.20;1.20;;;20.80;98.30;;;;;;4999016;28;20825;-69
2022/07/16 15:56:13;;;;;;;2.23;1.20;;;21.00;97.70;;;;;;4999330;28;20496;-70
2022/07/16 15:58:40;;;;;;;1.23;0.80;;;21.00;97.60;;;;;;4990892;28;20472;-70
2022/07/16 16:01:06;;;;;;;1.80;1.07;;;20.80;97.40;;;;;;5007553;28;20463;-70
2022/07/16 16:03:35;;;;;;;1.60;1.50;;;20.50;98.20;;;;;;4999652;28;20497;-70
2022/07/16 16:06:02;;;;;;;1.13;0.83;;;20.30;98.50;;;;;;5004146;28;20938;-70
2022/07/16 16:08:28;;;;;;;2.50;1.50;;;20.30;98.70;;;;;;5002328;28;20935;-69
2022/07/16 16:10:57;;;;;;;3.23;1.70;;;20.40;98.50;;;;;;5009004;28;20500;-71
2022/07/16 16:13:24;;;;;;;4.50;1.03;;;20.60;98.90;;;;;;4995368;28;20576;-70
2022/07/16 16:15:50;;;;;;;1.70;1.20;;;20.80;98.30;;;;;;5004931;28;20469;-70
2022/07/16 16:18:17;;;;;;;0.90;0.90;;;20.60;97.30;;;;;;5010484;28;20483;-69
2022/07/16 16:20:45;;;;;;;3.90;1.20;;;20.40;97.10;;;;;;5019142;28;20461;-70
2022/07/16 16:23:12;;;;;;;1.20;1.10;;;20.40;97.40;;;;;;5016281;28;20465;-70
2022/07/16 16:25:39;;;;;;;3.00;1.00;;;20.60;98.00;;;;;;5004665;28;20517;-69
2022/07/16 16:28:06;;;;;;;3.87;1.50;;;20.70;97.90;;;;;;5008343;28;20470;-71
2022/07/16 16:30:33;;;;;;;2.30;1.30;;;20.80;97.90;;;;;;5005754;28;21001;-70
2022/07/16 16:33:01;;;;;;;4.67;1.30;;;20.80;98.50;;;;;;5001892;28;20828;-71
2022/07/16 16:35:28;;;;;;;3.13;0.80;;;20.80;98.70;;;;;;5013031;28;20473;-70
2022/07/16 16:37:57;;;;;;;1.73;1.10;;;20.80;98.00;;;;;;5015173;28;20967;-71
2022/07/16 16:40:25;;;;;;;2.67;1.17;;;20.80;98.20;;;;;;5007235;28;20643;-71
2022/07/16 16:42:52;;;;;;;4.27;1.30;;;20.90;98.20;;;;;;5012970;28;20494;-70
2022/07/16 16:45:19;;;;;;;1.90;0.73;;;20.80;97.30;;;;;;5004878;28;20490;-70
2022/07/16 16:47:46;;;;;;;1.30;0.63;;;20.70;97.50;;;;;;5001868;28;20476;-69
2022/07/16 16:50:12;;;;;;;4.90;1.10;;;20.50;98.00;;;;;;4997862;28;20486;-70
2022/07/16 16:52:39;;;;;;;1.30;1.20;;;20.30;98.20;;;;;;5012112;28;20557;-70
2022/07/16 16:55:09;;;;;;;3.70;1.80;;;20.20;98.50;;;;;;5013700;28;20559;-70
2022/07/16 16:57:35;;;;;;;1.27;0.90;;;20.10;98.50;;;;;;5010788;28;20489;-70
2022/07/16 17:00:03;;;;;;;2.30;1.30;;;19.80;98.80;;;;;;5013231;28;20497;-69
2022/07/16 17:02:29;;;;;;;2.70;1.00;;;19.60;98.90;;;;;;5012511;28;20492;-69